Terminal Aerodrome Forecast
Issued by NWS

Home | Current Version | Previous Version | Text Only | Print | Product List | Glossary On
Versions: 1 2 3 4 5 6 7 8 9 10 11 12 13 14 15 16
000
FTAK31 PAJN 260700 AAA
TAFAPG
TAF AMD
PAPG 260701Z 2607/2706 VRB04KT P6SM -SHRA FEW010 BKN035 OVC040
      TEMPO 2607/2611 00000KT 5SM BR SCT005 BKN020 OVC030
     FM261200 00000KT P6SM VCFG SCT005 BKN040
     FM261900 05005KT P6SM SCT040 BKN100
      AMD LTD TO CLD VIS AND WIND 2606/2615=

USA.gov is the U.S. government's official web portal to all federal, state and local government web resources and services.